Date,TemperatureHighF,TemperatureAvgF,TemperatureLowF,DewpointHighF,DewpointAvgF,DewpointLowF,HumidityHigh,HumidityAvg,HumidityLow,PressureMaxIn,PressureMinIn,WindSpeedMaxMPH,WindSpeedAvgMPH,GustSpeedMaxMPH,PrecipitationSumIn
2013-1-9,43.4,42.1,40.2,36.5,34.5,28.9,80,75,58,29.92,29.86,14,2,14,0.00
2013-1-10,43.6,36.9,28.1,31.1,27.8,24.0,85,70,56,30.39,29.91,25,0,25,0.10
2013-1-11,38.2,31.3,23.0,33.4,27.6,21.0,96,86,70,30.38,30.06,3,0,3,0.10
2013-1-12,41.3,37.0,34.3,40.5,36.1,33.3,97,97,96,30.07,29.97,4,0,4,0.03
2013-1-13,49.2,43.3,37.2,48.1,42.7,36.4,98,97,94,30.00,29.83,9,0,9,0.01
2013-1-14,58.9,48.9,39.3,51.9,42.6,30.5,98,80,49,30.10,29.69,13,1,13,0.00
2013-1-15,40.7,35.8,29.9,30.7,28.2,26.7,89,74,59,30.18,30.07,13,0,13,0.00
2013-1-16,33.2,32.0,29.8,32.2,30.2,27.4,96,93,82,30.10,29.67,4,0,4,0.06
2013-1-17,40.6,33.2,27.0,33.9,27.6,16.8,97,81,60,29.95,29.68,18,1,18,0.18
2013-1-18,28.9,22.0,17.0,17.8,7.3,0.8,70,53,36,30.30,29.90,19,2,19,0.00
2013-1-19,47.4,35.4,20.4,32.2,24.5,10.0,86,65,46,30.23,29.72,17,2,17,0.08
2013-1-20,51.7,39.2,27.7,38.1,27.4,13.3,85,64,39,29.78,29.39,20,2,20,0.06
2013-1-21,28.6,24.3,17.9,20.7,13.8,7.9,90,65,47,29.95,29.64,11,0,11,0.00
2013-1-22,24.8,18.7,12.4,19.6,9.6,0.7,92,68,46,29.94,29.61,16,1,16,0.00
2013-1-23,17.6,10.7,6.2,3.5,-2.2,-5.7,71,56,42,30.00,29.92,13,1,13,0.00
2013-1-24,22.9,10.7,1.9,2.1,-3.8,-7.4,66,52,37,30.09,29.93,17,1,17,0.00
2013-1-25,25.0,15.7,7.6,13.8,-0.2,-5.9,85,50,35,30.17,29.90,8,0,8,0.00
2013-1-26,26.7,15.1,4.1,13.9,5.4,-0.6,89,67,44,30.11,29.86,9,0,9,0.00
2013-1-27,33.5,18.7,11.1,11.4,6.0,2.4,74,58,36,30.32,30.10,11,0,11,0.01
2013-1-28,31.0,23.1,12.9,25.6,17.0,6.5,94,78,49,30.30,29.86,7,0,7,0.00
2013-1-29,33.1,29.7,25.3,31.9,28.0,23.6,96,94,91,30.05,29.86,2,0,2,0.08
2013-1-30,56.7,44.9,32.8,56.0,44.0,31.8,99,97,94,30.00,29.28,11,0,11,0.26
2013-1-31,59.2,58.3,56.1,58.3,57.2,55.3,97,96,95,29.28,28.85,21,1,21,0.41
2013-2-6,35.0,29.2,24.3,20.9,12.4,7.8,58,49,45,30.15,29.91,4,0,7,0.02
2013-2-7,34.1,23.8,13.9,13.8,9.3,6.8,82,55,36,30.37,30.15,9,0,9,0.00
2013-2-8,27.2,24.1,20.7,25.0,20.0,11.8,94,85,60,30.33,29.47,22,1,22,0.00
2013-2-9,22.6,21.3,20.6,21.1,19.7,18.9,94,93,93,30.06,29.46,0,0,0,0.00
2013-2-10,24.3,23.5,22.6,22.8,22.0,21.1,94,94,94,30.24,30.06,0,0,0,0.00
2013-2-11,25.9,24.9,24.3,24.7,23.6,22.8,95,95,94,30.20,29.47,0,0,0,0.00
2013-2-12,31.2,28.1,25.9,30.6,27.1,24.6,98,96,95,29.75,29.47,0,0,0,0.00
2013-2-13,31.7,31.4,31.2,31.2,30.9,30.5,98,98,97,29.72,29.54,0,0,0,0.00
2013-2-14,32.1,31.9,31.7,31.6,31.4,31.2,98,98,98,29.83,29.57,0,0,0,0.00
2013-2-16,32.4,31.5,27.4,31.9,31.0,26.6,98,98,97,29.76,29.57,6,0,6,0.12
2013-2-17,27.3,21.7,19.3,26.6,20.5,17.9,97,95,94,29.57,29.27,21,2,22,0.00
2013-2-18,25.2,19.5,15.2,24.2,18.1,13.5,96,94,92,30.02,29.57,16,2,16,0.03
2013-2-19,32.3,24.7,17.7,31.8,23.6,16.0,98,96,93,30.03,29.44,7,0,7,0.35
2013-2-20,32.4,32.1,30.7,31.9,31.6,30.2,98,98,98,29.53,29.40,16,1,16,0.00
2013-2-27,35.5,34.6,33.7,35.2,34.3,33.4,99,99,98,29.48,29.43,5,0,5,1.36
2013-2-28,38.2,34.4,30.4,37.9,34.0,29.9,99,99,98,29.49,29.39,3,0,3,0.03
2013-3-1,38.7,34.6,28.4,38.1,32.0,27.9,99,90,77,29.54,29.39,7,0,7,0.00
2013-3-2,39.1,34.0,30.1,32.5,29.5,26.7,87,83,73,29.54,29.48,6,0,6,0.00
2013-3-3,36.6,32.9,31.3,31.8,28.6,27.1,87,84,81,29.50,29.46,5,0,5,0.00
2013-3-4,36.3,33.2,30.7,29.5,27.5,24.8,81,79,73,29.61,29.49,15,1,15,0.00
2013-3-5,43.7,34.7,28.8,33.0,28.5,23.7,92,78,64,29.92,29.61,6,0,6,0.00
2013-3-6,38.8,35.4,32.9,35.5,33.3,30.6,96,92,79,29.95,29.89,9,1,12,0.13
2013-3-7,33.8,32.3,30.4,32.1,30.4,28.5,96,93,88,29.92,29.86,18,3,18,0.11
2013-3-27,44.2,41.2,39.5,32.5,31.0,29.8,73,67,57,29.73,29.68,5,0,5,0.00
2013-3-28,48.5,41.3,34.9,35.1,33.8,32.3,94,76,55,29.88,29.73,13,0,13,0.01
2013-3-29,56.6,42.6,29.6,37.1,33.0,27.7,95,71,43,29.91,29.82,13,0,13,0.00
2013-3-30,59.0,43.9,32.0,34.1,29.0,23.8,88,59,29,29.96,29.85,12,0,12,0.00
2013-3-31,59.7,42.5,25.6,41.1,30.6,23.3,95,67,32,29.97,29.57,9,0,10,0.07
2013-4-1,62.3,45.3,34.0,46.2,37.4,16.6,97,76,45,29.66,29.36,19,1,19,0.18
2013-4-2,42.6,34.4,28.0,22.3,18.1,13.7,67,52,38,29.81,29.66,18,2,18,0.00
2013-4-27,68.5,58.6,43.4,41.6,38.0,35.8,80,48,32,30.12,30.02,5,0,5,0.00
2013-4-28,43.3,40.4,38.1,37.4,36.2,35.2,90,85,79,30.07,30.04,0,0,0,0.00
2013-5-7,83.8,70.5,58.0,60.3,57.1,54.4,88,65,40,29.92,29.82,3,0,3,0.00
2013-5-8,71.6,60.9,50.8,65.8,58.5,49.4,98,92,72,29.94,29.78,9,0,9,0.19
2013-5-9,67.3,59.8,56.5,62.6,59.1,55.9,99,97,80,29.79,29.63,2,0,2,0.52
2013-5-10,84.4,65.3,49.5,61.7,56.3,49.1,99,76,39,29.70,29.63,6,0,6,0.00
2013-5-11,69.0,62.4,58.2,64.1,60.0,55.5,98,92,79,29.66,29.44,11,0,11,0.10
2013-5-12,72.1,59.7,48.6,60.3,52.0,34.1,99,78,47,29.57,29.32,13,0,13,0.05
2013-5-13,60.8,49.9,41.5,38.3,33.2,30.0,77,54,35,29.78,29.57,12,0,12,0.01
2013-5-14,60.2,49.3,39.1,37.8,34.6,31.7,82,59,37,29.80,29.73,7,0,7,0.01
2013-5-15,68.0,50.5,33.4,53.3,42.8,31.3,95,78,39,29.80,29.42,7,0,9,0.01
2013-5-16,84.2,68.3,53.9,52.9,46.1,38.0,93,50,24,29.54,29.39,10,1,15,0.00
2013-5-17,73.8,59.5,47.4,48.4,44.0,39.2,86,59,36,29.96,29.54,10,0,10,0.00
2013-5-18,75.0,58.3,41.6,51.1,44.9,39.6,96,65,32,30.05,29.96,7,0,7,0.00
2013-5-19,72.8,57.9,45.6,56.1,51.4,43.5,97,81,50,30.08,29.95,7,0,7,0.09
2013-5-20,83.1,67.6,55.4,69.2,61.9,54.6,99,84,56,29.95,29.67,9,0,9,0.01
2013-5-21,91.2,65.8,50.7,72.7,60.7,49.9,98,86,50,29.81,29.57,7,0,7,0.26
2013-5-22,77.1,59.9,50.0,70.8,57.7,49.4,99,93,78,29.81,29.60,10,0,10,0.07
2013-5-23,70.5,63.4,55.4,69.4,62.3,54.1,99,96,91,29.67,29.54,6,0,6,0.14
2013-5-24,70.7,62.0,48.5,66.5,60.2,47.7,99,94,75,29.58,29.40,7,0,7,0.64
2013-5-25,50.9,46.7,40.3,50.6,46.0,39.2,99,98,96,29.58,29.48,11,0,11,0.43
2013-5-26,60.7,48.3,38.7,46.0,41.2,37.4,97,78,51,29.86,29.48,13,0,13,0.04
2013-5-27,75.0,56.8,38.2,49.4,42.4,36.6,96,64,29,29.92,29.82,13,0,13,0.01
2013-5-28,78.0,57.1,42.3,55.2,45.9,40.7,96,71,32,29.98,29.90,4,0,4,0.00
2013-6-1,94.8,84.4,73.6,74.5,70.2,65.0,82,64,38,29.65,29.61,7,0,7,0.00
2013-6-2,91.1,76.6,67.7,71.9,68.2,65.0,93,77,47,29.63,29.48,11,0,11,0.00
2013-6-3,78.7,67.9,60.1,71.5,63.8,46.1,99,88,59,29.60,29.51,12,0,12,0.71
2013-6-4,75.4,61.0,50.2,54.0,47.6,41.2,90,63,41,29.84,29.58,12,0,12,0.00
2013-6-5,63.4,52.4,47.6,51.9,47.9,45.5,96,86,54,29.94,29.84,2,0,2,0.00
2013-6-7,56.0,54.7,52.9,55.5,54.2,52.3,99,98,98,29.71,29.63,3,0,3,1.54
2013-6-8,78.7,57.0,52.1,67.8,55.4,51.8,99,95,63,29.76,29.38,10,0,10,1.20
2013-6-9,81.3,66.9,56.7,62.9,58.3,55.4,97,76,45,29.92,29.76,11,0,11,0.00
2013-6-10,68.4,61.0,53.8,64.2,58.8,52.4,98,93,77,29.95,29.75,3,0,3,0.72
2013-6-11,61.2,57.8,55.8,60.0,57.2,55.2,99,98,94,29.75,29.32,3,0,3,1.28
2013-6-12,58.1,57.5,57.2,57.8,57.2,56.6,99,99,98,29.34,29.31,3,0,3,0.00
2013-6-15,80.9,80.7,80.6,54.0,51.2,50.4,40,36,35,29.63,29.63,0,0,2,0.00
2013-6-16,73.7,69.5,66.0,65.9,62.5,57.3,90,79,61,29.64,29.46,1,0,4,0.00
2013-6-17,87.4,68.9,58.4,68.1,61.5,57.4,98,80,46,29.65,29.52,1,0,6,0.35
2013-6-18,73.3,61.5,57.7,67.8,60.5,57.1,99,97,82,29.69,29.62,0,0,2,0.89
2013-6-19,78.3,62.0,53.5,63.0,55.8,50.1,98,82,46,29.90,29.66,0,0,2,0.35
2013-6-20,82.0,63.8,48.4,63.2,53.9,46.8,97,74,36,30.01,29.90,1,0,6,0.00
2013-6-21,84.9,70.0,57.7,69.8,62.0,54.9,92,77,48,30.00,29.94,1,0,6,0.00
2013-6-22,66.8,65.7,64.5,61.0,60.2,59.2,84,82,81,29.97,29.95,0,0,2,0.00